Flight Track Log - Related Links

Times and Time Zones

All times are in EDT time to prevent confusion due to time zone crossing. See the LIA521 flight status page for this flight to view local times or setup timezone preferences in your user account.

Time Position Orientation Groundspeed Altitude Reporting Facility
EDT Latitude Longitude Course Direction KTS MPH feet Rate Location/Type
Wed 01:08:00 PM 11.5373 -59.1982 169° South  Level Estimated
Wed 01:09:00 PM 11.4758 -59.1865 169° South  Level Estimated
Wed 01:10:00 PM 11.4143 -59.1748 169° South  Level Estimated
Wed 01:11:00 PM 11.3528 -59.1631 169° South  Level Estimated
Wed 01:12:00 PM 11.2913 -59.1514 169° South  Level Estimated
Wed 01:13:00 PM 11.2298 -59.1397 169° South  Level Estimated
Wed 01:14:00 PM 11.1683 -59.1281 169° South  Level Estimated
Wed 01:15:00 PM 11.1068 -59.1164 169° South  Level Estimated
Wed 01:16:00 PM 11.0453 -59.1047 169° South  Level Estimated
Wed 01:17:00 PM 10.9838 -59.0931 169° South  Level Estimated
Wed 01:18:00 PM 10.9223 -59.0814 169° South  Level Estimated
Wed 01:19:00 PM 10.8608 -59.0698 169° South  Level Estimated
Wed 01:20:00 PM 10.7992 -59.0581 169° South  Level Estimated
Wed 01:21:00 PM 10.7377 -59.0465 169° South  Level Estimated
Wed 01:22:00 PM 10.6762 -59.0348 169° South  Level Estimated
Wed 01:23:00 PM 10.6147 -59.0232 169° South  Level Estimated
Wed 01:24:00 PM 10.5532 -59.0116 169° South  Level Estimated
Wed 01:25:00 PM 10.4917 -58.9999 169° South  Level Estimated
Wed 01:26:00 PM 10.4302 -58.9883 169° South  Level Estimated
Wed 01:27:00 PM 10.3687 -58.9767 169° South  Level Estimated
Wed 01:28:00 PM 10.3072 -58.9651 169° South  Level Estimated
Wed 01:29:00 PM 10.2457 -58.9535 169° South  Level Estimated
Wed 01:30:00 PM 10.1841 -58.9419 169° South  Level Estimated
Wed 01:31:00 PM 10.1226 -58.9303 169° South  Level Estimated
Wed 01:32:00 PM 10.0611 -58.9187 169° South  Level Estimated
Wed 01:33:00 PM 9.9996 -58.9071 169° South  Level Estimated
Wed 01:34:00 PM 9.9381 -58.8955 169° South  Level Estimated
Wed 01:35:00 PM 9.8766 -58.8840 169° South  Level Estimated
Wed 01:36:00 PM 9.8151 -58.8724 169° South  Level Estimated
Wed 01:37:00 PM 9.7536 -58.8608 169° South  Level Estimated
Wed 01:38:00 PM 9.6921 -58.8493 170° South  Level Estimated
Wed 01:39:00 PM 9.6306 -58.8377 170° South  Level Estimated
Wed 01:40:00 PM 9.5690 -58.8261 170° South  Level Estimated
Wed 01:41:00 PM 9.5075 -58.8146 170° South  Level Estimated
Wed 01:42:00 PM 9.4460 -58.8030 170° South  Level Estimated
Wed 01:43:00 PM 9.3845 -58.7915 170° South  Level Estimated
Wed 01:44:00 PM 9.3230 -58.7800 170° South  Level Estimated
Wed 01:45:00 PM 9.2615 -58.7684 170° South  Level Estimated
Wed 01:46:00 PM 9.2000 -58.7569 170° South  Level Estimated
Wed 01:47:00 PM 9.1384 -58.7454 170° South  Level Estimated
Wed 01:48:00 PM 9.0769 -58.7338 170° South  Level Estimated
Wed 01:49:00 PM 9.0154 -58.7223 170° South  Level Estimated
Wed 01:50:00 PM 8.9539 -58.7108 170° South  Level Estimated
Wed 01:51:00 PM 8.8924 -58.6993 170° South  Level Estimated
Wed 01:52:00 PM 8.8308 -58.6878 170° South  Level Estimated
Wed 01:53:00 PM 8.7693 -58.6763 170° South  Level Estimated
Wed 01:54:00 PM 8.7078 -58.6648 170° South  Level Estimated
Wed 01:55:00 PM 8.6463 -58.6533 170° South  Level Estimated
Wed 01:56:00 PM 8.5848 -58.6418 170° South  Level Estimated
Wed 01:57:00 PM 8.5232 -58.6303 170° South  Level Estimated
Wed 01:58:00 PM 8.4617 -58.6188 170° South  Level Estimated
Wed 01:59:00 PM 8.4002 -58.6073 170° South  Level Estimated
Wed 02:00:00 PM 8.3387 -58.5959 170° South  Level Estimated
Wed 02:01:00 PM 8.2772 -58.5844 170° South  Level Estimated
Wed 02:02:00 PM 8.2156 -58.5729 170° South  Level Estimated
Wed 02:03:00 PM 8.1541 -58.5614 170° South  Level Estimated
Wed 02:04:00 PM 8.0926 -58.5500 170° South  Level Estimated
Wed 02:05:00 PM 8.0311 -58.5385 170° South  Level Estimated
Wed 02:06:00 PM 7.9696 -58.5271 170° South  Level Estimated
Wed 02:07:00 PM 7.9081 -58.5156 170° South  Level Estimated
Wed 02:08:00 PM 7.8465 -58.5042 170° South  Level Estimated
Wed 02:09:00 PM 7.7850 -58.4927 170° South  Level Estimated
Wed 02:10:00 PM 7.7235 -58.4813 170° South  Level Estimated
Wed 02:11:00 PM 7.6620 -58.4698 170° South  Level Estimated
Wed 02:12:00 PM 7.6005 -58.4584 170° South  Level Estimated
Wed 02:13:00 PM 7.5389 -58.4470 170° South  Level Estimated
Wed 02:14:00 PM 7.4774 -58.4355 170° South  Level Estimated
Wed 02:15:00 PM 7.4159 -58.4241 170° South  Level Estimated
Wed 02:16:00 PM 7.3543 -58.4127 170° South  Level Estimated
Wed 02:17:00 PM 7.2928 -58.4013 170° South  Level Estimated
Wed 02:18:00 PM 7.2313 -58.3898 170° South  Level Estimated
Wed 02:19:00 PM 7.1698 -58.3784 170° South  Level Estimated
Wed 02:20:00 PM 7.1082 -58.3670 170° South  Level Estimated
Wed 02:21:00 PM 7.0467 -58.3556 170° South  Level Estimated
Wed 02:22:00 PM 6.9852 -58.3442 170° South  Level Estimated
Wed 02:23:00 PM 6.9236 -58.3328 170° South  Level Estimated
Wed 02:24:00 PM 6.8621 -58.3214 170° South  Level Estimated
Wed 02:25:00 PM 6.8006 -58.3100 170° South  Level Estimated
Wed 02:26:00 PM 6.7390 -58.2986 170° South  Level Estimated
Wed 02:27:00 PM 6.6775 -58.2872 170° South  Level Estimated
Wed 02:28:00 PM 6.6160 -58.2758 170° South  Level Estimated
Wed 02:29:00 PM 6.5545 -58.2645 170° South  Level Estimated
Wed 02:30:00 PM 6.4985 -58.2541 170° South  Level Estimated
Wed 02:31:00 PM 6.4985 -58.2541 18° North  Level Estimated
Wed 02:32:00 PM 6.4985 -58.2541 18° North  Level Estimated
Wed 02:33:00 PM 6.4985 -58.2541 18° North  Level Estimated
Wed 02:34:00 PM 6.4985 -58.2541 18° North  Level Estimated
Wed 02:35:00 PM 6.4985 -58.2541 18° North  Level Estimated
Wed 02:36:00 PM 6.4985 -58.2541 18° North  Level Estimated
Wed 02:37:00 PM 6.4985 -58.2541 18° North  Level Estimated

Login

Don't have an account? Register now (free) for customized features, flight alerts, and more!